createdAt,value
2018-08-07T00:02:25.294Z,4.57
2018-08-07T00:04:54.504Z,4.47
2018-08-07T00:07:23.551Z,4.40
2018-08-07T00:09:52.755Z,5.00
2018-08-07T00:12:22.010Z,4.43
2018-08-07T00:14:51.062Z,5.30
2018-08-07T00:17:20.064Z,5.07
2018-08-07T00:19:49.287Z,5.40
2018-08-07T00:22:18.486Z,5.20
2018-08-07T00:24:47.739Z,4.80
2018-08-07T00:27:16.751Z,5.57
2018-08-07T00:29:45.801Z,5.07
2018-08-07T00:32:14.811Z,5.17
2018-08-07T00:34:44.043Z,5.80
2018-08-07T00:37:13.035Z,5.27
2018-08-07T00:39:42.306Z,5.50
2018-08-07T00:42:11.511Z,5.43
2018-08-07T00:44:40.736Z,6.30
2018-08-07T00:47:09.791Z,5.80
2018-08-07T00:49:39.002Z,5.73
2018-08-07T00:52:08.039Z,5.97
2018-08-07T00:54:37.051Z,6.03
2018-08-07T00:57:06.063Z,6.10
2018-08-07T00:59:35.298Z,6.07
2018-08-07T01:02:04.566Z,5.77
2018-08-07T01:04:33.768Z,6.00
2018-08-07T01:07:02.743Z,5.90
2018-08-07T01:09:32.016Z,7.30
2018-08-07T01:12:01.226Z,6.70
2018-08-07T01:14:30.455Z,6.80
2018-08-07T01:16:59.489Z,6.73
2018-08-07T01:19:28.489Z,6.60
2018-08-07T01:21:57.748Z,6.57
2018-08-07T01:24:26.962Z,7.03
2018-08-07T01:26:56.241Z,6.50
2018-08-07T01:29:25.426Z,7.13
2018-08-07T01:31:54.666Z,7.20
2018-08-07T01:34:23.999Z,7.40
2018-08-07T01:36:53.286Z,7.00
2018-08-07T01:39:22.543Z,6.70
2018-08-07T01:41:51.734Z,6.93
2018-08-07T01:44:20.780Z,7.20
2018-08-07T01:46:49.995Z,7.67
2018-08-07T01:49:19.275Z,7.20
2018-08-07T01:51:48.454Z,7.13
2018-08-07T01:54:17.467Z,7.67
2018-08-07T01:56:46.730Z,7.17
2018-08-07T01:59:15.693Z,6.77
2018-08-07T02:01:44.761Z,6.80
2018-08-07T02:04:13.994Z,7.37
2018-08-07T02:06:43.222Z,7.00
2018-08-07T02:09:12.323Z,6.70
2018-08-07T02:11:41.479Z,7.83
2018-08-07T02:14:10.709Z,7.73
2018-08-07T02:16:39.927Z,6.70
2018-08-07T02:19:08.952Z,7.03
2018-08-07T02:21:37.976Z,8.00
2018-08-07T02:24:07.199Z,6.87
2018-08-07T02:26:36.423Z,7.17
2018-08-07T02:29:05.673Z,7.00
2018-08-07T02:31:34.672Z,6.80
2018-08-07T02:34:03.815Z,7.13
2018-08-07T02:36:32.950Z,6.60
2018-08-07T02:39:02.330Z,6.80
2018-08-07T02:41:31.364Z,7.00
2018-08-07T02:44:00.631Z,6.93
2018-08-07T02:46:29.883Z,7.77
2018-08-07T02:48:59.073Z,7.13
2018-08-07T02:51:28.079Z,6.83
2018-08-07T02:53:57.322Z,6.83
2018-08-07T02:56:26.571Z,7.30
2018-08-07T02:58:55.782Z,7.53
2018-08-07T03:01:25.016Z,6.87
2018-08-07T03:03:54.051Z,7.07
2018-08-07T03:06:23.054Z,7.57
2018-08-07T03:08:52.283Z,6.90
2018-08-07T03:11:21.678Z,6.90
2018-08-07T03:13:50.715Z,7.30
2018-08-07T03:16:19.756Z,7.00
2018-08-07T03:18:48.988Z,8.10
2018-08-07T03:21:18.210Z,7.13
2018-08-07T03:23:47.456Z,6.77
2018-08-07T03:26:16.425Z,7.50
2018-08-07T03:28:45.523Z,6.73
2018-08-07T03:31:14.719Z,7.10
2018-08-07T03:33:43.947Z,7.70
2018-08-07T03:36:13.213Z,7.47
2018-08-07T03:38:42.439Z,6.80
2018-08-07T03:41:11.429Z,6.90
2018-08-07T03:43:40.684Z,7.77
2018-08-07T03:46:09.732Z,7.27
2018-08-07T03:48:38.730Z,7.70
2018-08-07T03:51:07.507Z,7.73
2018-08-07T03:53:36.766Z,7.40
2018-08-07T03:56:05.777Z,7.67
2018-08-07T03:58:35.021Z,7.30
2018-08-07T04:01:04.250Z,7.03
2018-08-07T04:03:34.098Z,7.17
2018-08-07T04:06:03.327Z,6.70
2018-08-07T04:08:32.512Z,7.60
2018-08-07T04:11:01.428Z,7.17
2018-08-07T04:13:30.589Z,7.63
2018-08-07T04:16:00.107Z,7.97
2018-08-07T04:18:29.219Z,7.30
2018-08-07T04:20:58.458Z,7.10
2018-08-07T04:23:27.471Z,7.87
2018-08-07T04:25:56.726Z,6.93
2018-08-07T04:28:25.937Z,8.13
2018-08-07T04:30:55.199Z,7.63
2018-08-07T04:33:24.183Z,7.80
2018-08-07T04:35:53.407Z,7.50
2018-08-07T04:38:22.656Z,7.63
2018-08-07T04:40:51.875Z,7.43
2018-08-07T04:43:21.069Z,7.77
2018-08-07T04:45:50.447Z,7.53
2018-08-07T04:48:19.359Z,6.90
2018-08-07T04:50:48.455Z,7.67
2018-08-07T04:53:17.627Z,7.60
2018-08-07T04:55:46.626Z,7.97
2018-08-07T04:58:15.634Z,8.00
2018-08-07T05:00:44.906Z,8.00
2018-08-07T05:03:13.887Z,7.57
2018-08-07T05:05:43.163Z,8.87
2018-08-07T05:08:12.134Z,7.63
2018-08-07T05:10:41.203Z,7.93
2018-08-07T05:13:10.643Z,8.17
2018-08-07T05:15:39.846Z,7.60
2018-08-07T05:18:09.076Z,7.77
2018-08-07T05:20:38.163Z,8.00
2018-08-07T05:23:07.414Z,7.37
2018-08-07T05:25:36.558Z,7.80
2018-08-07T05:28:05.785Z,8.03
2018-08-07T05:30:35.020Z,7.93
2018-08-07T05:33:04.250Z,8.17
2018-08-07T05:35:33.240Z,7.17
2018-08-07T05:38:02.702Z,8.07
2018-08-07T05:40:31.947Z,7.37
2018-08-07T05:43:01.135Z,7.80
2018-08-07T05:45:30.257Z,7.83
2018-08-07T05:47:59.579Z,8.40
2018-08-07T05:50:28.777Z,8.10
2018-08-07T05:52:57.662Z,8.10
2018-08-07T05:55:26.667Z,8.50
2018-08-07T05:57:55.940Z,7.83
2018-08-07T06:00:24.924Z,8.67
2018-08-07T06:02:54.147Z,7.73
2018-08-07T06:05:23.370Z,8.20
2018-08-07T06:07:52.415Z,8.20
2018-08-07T06:10:20.944Z,9.03
2018-08-07T06:12:49.477Z,9.17
2018-08-07T06:15:18.408Z,8.57
2018-08-07T06:17:47.713Z,7.83
2018-08-07T06:20:16.332Z,8.30
2018-08-07T06:22:45.348Z,8.50
2018-08-07T06:25:14.447Z,8.73
2018-08-07T06:27:43.672Z,8.30
2018-08-07T06:30:14.638Z,8.10
2018-08-07T06:32:43.960Z,9.00
2018-08-07T06:35:14.026Z,8.03
2018-08-07T06:37:43.416Z,8.93
2018-08-07T06:40:13.301Z,7.77
2018-08-07T06:42:42.546Z,8.30
2018-08-07T06:45:12.160Z,8.67
2018-08-07T06:47:41.413Z,8.67
2018-08-07T06:50:12.441Z,8.67
2018-08-07T06:52:41.542Z,8.63
2018-08-07T06:55:11.111Z,8.87
2018-08-07T06:57:40.751Z,8.87
2018-08-07T07:00:10.872Z,8.43
2018-08-07T07:02:40.328Z,8.67
2018-08-07T07:05:08.867Z,8.10
2018-08-07T07:07:38.047Z,8.50
2018-08-07T07:10:07.411Z,8.63
2018-08-07T07:12:36.166Z,8.50
2018-08-07T07:15:05.345Z,8.87
2018-08-07T07:17:33.850Z,8.97
2018-08-07T07:20:02.402Z,8.63
2018-08-07T07:22:30.943Z,8.43
2018-08-07T07:25:01.551Z,9.10
2018-08-07T07:27:30.804Z,8.83
2018-08-07T07:29:59.434Z,8.80
2018-08-07T07:32:28.367Z,8.40
2018-08-07T07:34:57.651Z,8.30
2018-08-07T07:37:26.895Z,8.43
2018-08-07T07:39:55.406Z,8.63
2018-08-07T07:42:24.743Z,8.20
2018-08-07T07:44:54.003Z,8.23
2018-08-07T07:47:22.867Z,8.07
2018-08-07T07:49:51.366Z,9.13
2018-08-07T07:52:20.490Z,8.30
2018-08-07T07:54:49.079Z,8.80
2018-08-07T07:57:17.691Z,8.10
2018-08-07T07:59:46.251Z,8.00
2018-08-07T08:02:14.806Z,8.20
2018-08-07T08:04:43.567Z,7.57
2018-08-07T08:07:12.142Z,7.20
2018-08-07T08:09:40.855Z,8.77
2018-08-07T08:12:09.437Z,8.20
2018-08-07T08:14:37.985Z,8.27
2018-08-07T08:17:06.677Z,7.73
2018-08-07T08:19:35.237Z,8.40
2018-08-07T08:22:03.919Z,7.73
2018-08-07T08:24:32.433Z,8.37
2018-08-07T08:27:01.029Z,7.23
2018-08-07T08:29:29.643Z,8.80
2018-08-07T08:31:58.124Z,7.53
2018-08-07T08:34:27.279Z,7.53
2018-08-07T08:36:56.064Z,6.83
2018-08-07T08:39:24.740Z,7.57
2018-08-07T08:41:53.508Z,6.97
2018-08-07T08:44:22.111Z,8.03
2018-08-07T08:46:50.799Z,7.47
2018-08-07T08:49:19.414Z,7.60
2018-08-07T08:51:48.143Z,7.00
2018-08-07T08:54:16.847Z,6.97
2018-08-07T08:56:45.600Z,7.00
2018-08-07T08:59:14.315Z,6.90
2018-08-07T09:01:42.996Z,6.07
2018-08-07T09:04:11.631Z,6.63
2018-08-07T09:06:40.405Z,6.90
2018-08-07T09:09:10.826Z,6.83
2018-08-07T09:11:39.630Z,7.03
2018-08-07T09:14:09.474Z,7.43
2018-08-07T09:16:38.873Z,6.53
2018-08-07T09:19:08.120Z,6.77
2018-08-07T09:21:37.722Z,7.40
2018-08-07T09:24:06.730Z,7.60
2018-08-07T09:26:35.455Z,7.60
2018-08-07T09:29:04.071Z,6.97
2018-08-07T09:31:32.622Z,6.97
2018-08-07T09:34:01.192Z,7.13
2018-08-07T09:36:29.855Z,6.50
2018-08-07T09:38:58.489Z,7.10
2018-08-07T09:41:27.147Z,7.67
2018-08-07T09:43:55.675Z,7.03
2018-08-07T09:46:24.195Z,6.87
2018-08-07T09:48:52.732Z,7.47
2018-08-07T09:51:21.405Z,7.10
2018-08-07T09:53:49.972Z,7.07
2018-08-07T09:56:18.525Z,7.17
2018-08-07T09:58:47.054Z,7.33
2018-08-07T10:03:22.548Z,6.43
2018-08-07T10:05:51.353Z,6.50
2018-08-07T10:08:20.057Z,6.80
2018-08-07T10:10:48.914Z,6.90
2018-08-07T10:13:18.609Z,6.93
2018-08-07T10:15:47.115Z,6.80
2018-08-07T10:18:16.231Z,7.83
2018-08-07T10:20:45.017Z,8.53
2018-08-07T10:23:14.223Z,7.77
2018-08-07T10:25:43.418Z,7.00
2018-08-07T10:28:12.143Z,8.67
2018-08-07T10:30:40.934Z,7.10
2018-08-07T10:33:09.647Z,7.60
2018-08-07T10:35:38.453Z,7.00
2018-08-07T10:38:07.017Z,7.00
2018-08-07T10:40:35.614Z,6.97
2018-08-07T10:43:04.922Z,6.60
2018-08-07T10:45:33.944Z,6.63
2018-08-07T10:48:02.476Z,6.90
2018-08-07T10:50:31.050Z,7.27
2018-08-07T10:53:00.065Z,6.50
2018-08-07T10:55:28.846Z,6.97
2018-08-07T10:57:58.219Z,6.63
2018-08-07T11:00:29.711Z,5.90
2018-08-07T11:02:58.768Z,6.40
2018-08-07T11:05:27.963Z,7.43
2018-08-07T11:07:56.567Z,6.77
2018-08-07T11:10:25.243Z,6.77
2018-08-07T11:12:54.320Z,6.90
2018-08-07T11:15:26.682Z,6.50
2018-08-07T11:17:56.183Z,6.77
2018-08-07T11:20:25.043Z,7.20
2018-08-07T11:22:54.520Z,7.13
2018-08-07T11:25:24.408Z,6.90
2018-08-07T11:27:53.019Z,7.27
2018-08-07T11:30:24.453Z,6.60
2018-08-07T11:32:53.972Z,7.17
2018-08-07T11:35:23.486Z,7.73
2018-08-07T11:37:52.587Z,6.67
2018-08-07T11:40:22.463Z,6.50
2018-08-07T11:42:52.098Z,7.30
2018-08-07T11:45:22.551Z,6.92
2018-08-07T11:47:51.243Z,6.78
2018-08-07T11:50:21.353Z,7.12
2018-08-07T11:52:49.973Z,6.60
2018-08-07T11:55:19.454Z,6.80
2018-08-07T11:57:48.478Z,7.28
2018-08-07T12:00:18.772Z,7.40
2018-08-07T12:02:48.022Z,6.93
2018-08-07T12:05:17.441Z,6.97
2018-08-07T12:07:46.668Z,6.53
2018-08-07T12:10:16.710Z,6.78
2018-08-07T12:12:46.199Z,6.73
2018-08-07T12:15:16.658Z,6.45
2018-08-07T12:17:45.913Z,7.80
2018-08-07T12:20:15.006Z,6.87
2018-08-07T12:22:44.079Z,7.30
2018-08-07T12:25:14.315Z,6.87
2018-08-07T12:27:43.515Z,7.65
2018-08-07T12:30:30.692Z,6.65
2018-08-07T12:33:00.979Z,6.80
2018-08-07T12:35:30.203Z,6.87
2018-08-07T12:37:59.382Z,6.87
2018-08-07T12:40:29.003Z,7.08
2018-08-07T12:42:59.625Z,6.60
2018-08-07T12:45:28.221Z,7.20
2018-08-07T12:47:56.818Z,6.80
2018-08-07T12:50:26.016Z,6.60
2018-08-07T12:52:54.969Z,6.80
2018-08-07T12:55:24.363Z,6.10
2018-08-07T12:57:53.323Z,6.20
2018-08-07T13:00:25.449Z,6.62
2018-08-07T13:02:54.100Z,7.10
2018-08-07T13:05:23.267Z,6.65
2018-08-07T13:07:52.479Z,6.13
2018-08-07T13:10:22.214Z,6.97
2018-08-07T13:12:52.064Z,6.62
2018-08-07T13:15:22.060Z,6.67
2018-08-07T13:17:51.516Z,7.17
2018-08-07T13:20:20.564Z,6.53
2018-08-07T13:22:50.072Z,6.60
2018-08-07T13:25:20.703Z,6.67
2018-08-07T13:27:50.003Z,6.95
2018-08-07T13:30:27.031Z,6.53
2018-08-07T13:32:56.142Z,6.75
2018-08-07T13:35:24.954Z,7.00
2018-08-07T13:37:54.360Z,6.80
2018-08-07T13:40:25.007Z,6.97
2018-08-07T13:42:54.386Z,6.80
2018-08-07T13:45:23.824Z,8.13
2018-08-07T13:47:52.530Z,6.50
2018-08-07T13:50:22.077Z,6.55
2018-08-07T13:52:51.114Z,6.45
2018-08-07T13:55:20.708Z,6.30
2018-08-07T13:57:49.651Z,6.65
2018-08-07T14:00:20.506Z,6.78
2018-08-07T14:02:50.071Z,6.95
2018-08-07T14:05:19.728Z,6.17
2018-08-07T14:07:51.493Z,6.30
2018-08-07T14:10:21.215Z,6.67
2018-08-07T14:12:50.045Z,7.35
2018-08-07T14:15:19.836Z,7.15
2018-08-07T14:17:48.967Z,6.85
2018-08-07T14:20:18.462Z,7.12
2018-08-07T14:22:47.518Z,6.75
2018-08-07T14:25:20.548Z,7.15
2018-08-07T14:27:49.431Z,6.42
2018-08-07T14:30:21.130Z,6.80
2018-08-07T14:32:50.156Z,6.60
2018-08-07T14:35:18.999Z,7.15
2018-08-07T14:37:48.211Z,6.97
2018-08-07T14:40:17.579Z,6.85
2018-08-07T14:42:47.611Z,6.92
2018-08-07T14:45:17.198Z,6.78
2018-08-07T14:47:45.888Z,6.72
2018-08-07T14:50:18.623Z,6.85
2018-08-07T14:52:47.196Z,6.55
2018-08-07T14:55:15.848Z,6.37
2018-08-07T14:57:44.469Z,7.17
2018-08-07T15:00:14.653Z,6.65
2018-08-07T15:02:43.349Z,6.85
2018-08-07T15:05:11.923Z,7.15
2018-08-07T15:07:40.571Z,6.75
2018-08-07T15:10:11.082Z,6.92
2018-08-07T15:12:40.075Z,6.97
2018-08-07T15:15:11.067Z,7.35
2018-08-07T15:17:40.399Z,7.12
2018-08-07T15:20:09.729Z,7.37
2018-08-07T15:22:38.524Z,7.40
2018-08-07T15:25:08.640Z,7.25
2018-08-07T15:27:37.146Z,7.30
2018-08-07T15:30:06.979Z,6.72
2018-08-07T15:32:35.843Z,8.10
2018-08-07T15:35:04.424Z,7.92
2018-08-07T15:37:33.090Z,8.03
2018-08-07T15:40:01.907Z,6.90
2018-08-07T15:42:30.458Z,8.08
2018-08-07T15:44:59.175Z,7.60
2018-08-07T15:47:27.811Z,8.35
2018-08-07T15:49:56.520Z,8.40
2018-08-07T15:52:25.088Z,8.10
2018-08-07T15:54:53.633Z,8.40
2018-08-07T15:57:22.156Z,8.20
2018-08-07T15:59:50.642Z,8.68
2018-08-07T16:02:19.263Z,8.00
2018-08-07T16:04:47.773Z,8.23
2018-08-07T16:07:16.286Z,8.30
2018-08-07T16:09:44.821Z,7.97
2018-08-07T16:12:13.340Z,8.03
2018-08-07T16:14:42.650Z,10.58
2018-08-07T16:17:11.212Z,9.30
2018-08-07T16:19:39.723Z,8.35
2018-08-07T16:22:08.442Z,8.73
2018-08-07T16:24:36.968Z,8.78
2018-08-07T16:27:05.535Z,8.75
2018-08-07T16:29:34.145Z,7.83
2018-08-07T16:32:02.770Z,8.08
2018-08-07T16:34:31.385Z,8.65
2018-08-07T16:36:59.904Z,8.78
2018-08-07T16:39:28.463Z,8.20
2018-08-07T16:41:56.984Z,9.23
2018-08-07T16:44:25.510Z,8.03
2018-08-07T16:46:54.039Z,8.25
2018-08-07T16:49:22.560Z,8.08
2018-08-07T16:51:51.059Z,8.08
2018-08-07T16:54:19.571Z,7.97
2018-08-07T16:56:48.096Z,8.13
2018-08-07T16:59:16.595Z,7.87
2018-08-07T17:01:45.127Z,8.03
2018-08-07T17:04:13.681Z,7.53
2018-08-07T17:06:42.421Z,7.40
2018-08-07T17:09:12.249Z,7.60
2018-08-07T17:11:40.783Z,7.45
2018-08-07T17:14:09.278Z,7.03
2018-08-07T17:16:37.779Z,6.97
2018-08-07T17:19:06.279Z,7.25
2018-08-07T17:21:34.911Z,7.08
2018-08-07T17:24:03.550Z,6.87
2018-08-07T17:26:32.079Z,7.08
2018-08-07T17:29:00.597Z,8.15
2018-08-07T17:31:29.101Z,7.42
2018-08-07T17:33:57.662Z,7.20
2018-08-07T17:36:26.176Z,7.10
2018-08-07T17:38:55.120Z,7.33
2018-08-07T17:41:23.673Z,6.80
2018-08-07T17:43:52.162Z,7.45
2018-08-07T17:46:20.787Z,6.83
2018-08-07T17:48:49.286Z,6.80
2018-08-07T17:51:17.810Z,7.45
2018-08-07T17:53:46.406Z,7.15
2018-08-07T17:56:14.940Z,7.15
2018-08-07T17:58:43.444Z,7.67
2018-08-07T18:01:11.948Z,7.12
2018-08-07T18:03:40.456Z,6.90
2018-08-07T18:06:09.126Z,6.87
2018-08-07T18:08:37.639Z,6.93
2018-08-07T18:11:06.211Z,7.20
2018-08-07T18:13:34.730Z,6.50
2018-08-07T18:16:03.255Z,6.60
2018-08-07T18:18:31.844Z,7.07
2018-08-07T18:21:00.370Z,7.60
2018-08-07T18:23:28.938Z,6.43
2018-08-07T18:25:57.485Z,6.80
2018-08-07T18:28:25.973Z,7.03
2018-08-07T18:30:54.510Z,6.70
2018-08-07T18:33:22.999Z,6.40
2018-08-07T18:35:51.508Z,6.67
2018-08-07T18:38:19.991Z,6.50
2018-08-07T18:40:48.520Z,6.50
2018-08-07T18:43:17.351Z,6.50
2018-08-07T18:45:45.890Z,6.23
2018-08-07T18:48:14.566Z,6.33
2018-08-07T18:50:44.070Z,6.53
2018-08-07T18:55:47.588Z,6.20
2018-08-07T18:58:16.098Z,6.20
2018-08-07T19:03:34.907Z,6.37
2018-08-07T19:06:03.440Z,6.40
2018-08-07T19:08:31.980Z,6.83
2018-08-07T19:11:00.492Z,6.07
2018-08-07T19:13:29.065Z,6.50
2018-08-07T19:15:57.572Z,5.83
2018-08-07T19:18:26.143Z,5.77
2018-08-07T19:20:54.737Z,6.20
2018-08-07T19:23:23.235Z,6.47
2018-08-07T19:25:51.738Z,5.93
2018-08-07T19:28:20.235Z,6.13
2018-08-07T19:30:48.776Z,6.00
2018-08-07T19:33:17.292Z,5.97
2018-08-07T19:35:45.911Z,6.20
2018-08-07T19:38:14.467Z,6.40
2018-08-07T19:40:43.043Z,5.90
2018-08-07T19:43:11.632Z,6.30
2018-08-07T19:45:40.223Z,6.10
2018-08-07T19:48:08.752Z,5.97
2018-08-07T19:50:37.376Z,6.17
2018-08-07T19:53:06.188Z,6.20
2018-08-07T19:55:34.732Z,5.97
2018-08-07T19:58:03.276Z,6.83
2018-08-07T20:00:31.868Z,5.93
2018-08-07T20:03:00.415Z,6.50
2018-08-07T20:05:28.915Z,6.37
2018-08-07T20:07:58.207Z,6.57
2018-08-07T20:10:26.879Z,5.97
2018-08-07T20:12:55.423Z,6.20
2018-08-07T20:15:25.782Z,6.80
2018-08-07T20:17:55.356Z,6.23
2018-08-07T20:20:24.678Z,6.00
2018-08-07T20:22:53.565Z,6.20
2018-08-07T20:25:22.399Z,6.17
2018-08-07T20:27:50.927Z,6.33
2018-08-07T20:30:20.855Z,6.23
2018-08-07T20:32:50.861Z,5.87
2018-08-07T20:35:19.407Z,5.87
2018-08-07T20:37:47.929Z,6.23
2018-08-07T20:40:20.687Z,6.33
2018-08-07T20:42:49.247Z,6.50
2018-08-07T20:45:18.609Z,6.80
2018-08-07T20:47:47.171Z,6.33
2018-08-07T20:50:17.440Z,5.43
2018-08-07T20:52:46.571Z,6.30
2018-08-07T20:55:15.505Z,5.90
2018-08-07T20:57:44.186Z,5.83
2018-08-07T21:00:18.778Z,6.10
2018-08-07T21:02:47.614Z,5.90
2018-08-07T21:05:16.258Z,6.30
2018-08-07T21:07:44.771Z,5.97
2018-08-07T21:10:15.248Z,5.83
2018-08-07T21:12:44.101Z,5.63
2018-08-07T21:15:13.019Z,5.80
2018-08-07T21:17:41.624Z,5.87
2018-08-07T21:20:11.605Z,5.37
2018-08-07T21:22:40.241Z,5.43
2018-08-07T21:25:10.052Z,5.47
2018-08-07T21:27:38.558Z,5.27
2018-08-07T21:30:08.675Z,5.90
2018-08-07T21:32:37.223Z,5.63
2018-08-07T21:35:06.694Z,5.77
2018-08-07T21:37:35.169Z,5.47
2018-08-07T21:40:03.783Z,5.73
2018-08-07T21:42:32.302Z,5.80
2018-08-07T21:45:00.835Z,6.23
2018-08-07T21:47:29.358Z,6.30
2018-08-07T21:49:57.867Z,5.70
2018-08-07T21:52:26.412Z,6.00
2018-08-07T21:54:55.186Z,6.10
2018-08-07T21:57:23.671Z,6.03
2018-08-07T21:59:52.182Z,6.00
2018-08-07T22:02:20.738Z,6.17
2018-08-07T22:04:49.658Z,6.00
2018-08-07T22:07:18.249Z,5.80
2018-08-07T22:09:46.830Z,6.27
2018-08-07T22:12:15.385Z,5.60
2018-08-07T22:14:43.924Z,6.37
2018-08-07T22:17:12.412Z,6.70
2018-08-07T22:19:41.086Z,6.50
2018-08-07T22:22:09.594Z,6.37
2018-08-07T22:24:38.111Z,6.67
2018-08-07T22:27:06.704Z,6.80
2018-08-07T22:29:35.199Z,7.10
2018-08-07T22:32:03.827Z,7.03
2018-08-07T22:34:32.347Z,7.30
2018-08-07T22:37:00.867Z,7.33
2018-08-07T22:39:29.387Z,7.67
2018-08-07T22:41:57.896Z,7.50
2018-08-07T22:44:26.393Z,7.77
2018-08-07T22:46:54.981Z,8.30
2018-08-07T22:49:23.475Z,7.67
2018-08-07T22:51:52.059Z,7.53
2018-08-07T22:54:20.554Z,8.00
2018-08-07T22:56:49.098Z,8.20
2018-08-07T22:59:18.347Z,9.10
2018-08-07T23:01:46.927Z,8.03
2018-08-07T23:04:15.436Z,8.60
2018-08-07T23:06:44.015Z,10.00
2018-08-07T23:09:12.548Z,8.73
2018-08-07T23:11:41.042Z,8.70
2018-08-07T23:14:09.567Z,9.20
2018-08-07T23:16:38.147Z,8.60
2018-08-07T23:19:06.676Z,9.20
2018-08-07T23:21:35.239Z,8.77
2018-08-07T23:24:03.830Z,10.07
2018-08-07T23:26:32.335Z,9.53
2018-08-07T23:29:00.872Z,9.43
2018-08-07T23:31:29.439Z,9.07
2018-08-07T23:33:57.944Z,9.00
2018-08-07T23:36:26.449Z,9.10
2018-08-07T23:38:54.990Z,9.50
2018-08-07T23:41:23.522Z,9.23
2018-08-07T23:43:52.082Z,8.70
2018-08-07T23:46:20.583Z,9.57
2018-08-07T23:48:49.099Z,8.90
2018-08-07T23:51:17.645Z,9.57
2018-08-07T23:54:23.936Z,8.83
2018-08-07T23:56:51.873Z,9.50
2018-08-07T23:59:19.714Z,9.77
